sensor_id;sensor_type;location;lat;lon;timestamp;P1;durP1;ratioP1;P2;durP2;ratioP2
70414;SDS011;57837;52.064;113.478;2024-03-23T00:54:09;15.93;;;2.50;;
70414;SDS011;57837;52.064;113.478;2024-03-23T00:57:12;3.72;;;1.13;;
70414;SDS011;57837;52.064;113.478;2024-03-23T01:00:14;4.55;;;1.48;;
70414;SDS011;57837;52.064;113.478;2024-03-23T01:03:17;6.53;;;1.33;;
70414;SDS011;57837;52.064;113.478;2024-03-23T01:06:18;3.50;;;1.23;;
70414;SDS011;57837;52.064;113.478;2024-03-23T01:09:20;1.40;;;0.70;;
70414;SDS011;57837;52.064;113.478;2024-03-23T01:12:22;6.90;;;1.13;;
70414;SDS011;57837;52.064;113.478;2024-03-23T01:15:24;5.72;;;1.23;;
70414;SDS011;57837;52.064;113.478;2024-03-23T01:18:25;3.03;;;1.00;;
70414;SDS011;57837;52.064;113.478;2024-03-23T01:21:28;4.63;;;1.30;;
70414;SDS011;57837;52.064;113.478;2024-03-23T01:24:30;5.73;;;1.00;;
70414;SDS011;57837;52.064;113.478;2024-03-23T01:27:32;4.27;;;1.00;;
70414;SDS011;57837;52.064;113.478;2024-03-23T01:30:35;5.35;;;1.60;;
70414;SDS011;57837;52.064;113.478;2024-03-23T01:33:38;4.30;;;1.30;;
70414;SDS011;57837;52.064;113.478;2024-03-23T01:36:39;8.82;;;2.40;;
70414;SDS011;57837;52.064;113.478;2024-03-23T01:39:41;6.40;;;1.80;;
70414;SDS011;57837;52.064;113.478;2024-03-23T01:42:58;8.20;;;1.40;;
70414;SDS011;57837;52.064;113.478;2024-03-23T01:46:04;2.55;;;1.00;;
70414;SDS011;57837;52.064;113.478;2024-03-23T01:49:06;5.50;;;0.90;;
70414;SDS011;57837;52.064;113.478;2024-03-23T01:52:08;3.08;;;0.95;;
70414;SDS011;57837;52.064;113.478;2024-03-23T01:55:10;5.33;;;0.80;;
70414;SDS011;57837;52.064;113.478;2024-03-23T01:58:13;2.83;;;1.20;;
70414;SDS011;57837;52.064;113.478;2024-03-23T02:01:14;2.00;;;0.88;;
70414;SDS011;57837;52.064;113.478;2024-03-23T02:04:16;3.25;;;1.70;;
70414;SDS011;57837;52.064;113.478;2024-03-23T02:07:19;17.95;;;6.82;;
70414;SDS011;57837;52.064;113.478;2024-03-23T02:10:21;5.17;;;1.73;;
70414;SDS011;57837;52.064;113.478;2024-03-23T02:13:24;10.90;;;2.55;;
70414;SDS011;57837;52.064;113.478;2024-03-23T02:16:26;2.58;;;0.77;;
70414;SDS011;57837;52.064;113.478;2024-03-23T02:19:28;5.70;;;0.73;;
70414;SDS011;57837;52.064;113.478;2024-03-23T02:22:37;3.60;;;1.40;;
70414;SDS011;57837;52.064;113.478;2024-03-23T02:25:40;3.70;;;1.10;;
70414;SDS011;57837;52.064;113.478;2024-03-23T02:28:42;1.88;;;0.82;;
70414;SDS011;57837;52.064;113.478;2024-03-23T02:31:44;2.60;;;0.70;;
70414;SDS011;57837;52.064;113.478;2024-03-23T02:34:46;5.95;;;1.85;;
70414;SDS011;57837;52.064;113.478;2024-03-23T02:37:48;3.65;;;1.50;;
70414;SDS011;57837;52.064;113.478;2024-03-23T02:40:50;6.20;;;1.30;;
70414;SDS011;57837;52.064;113.478;2024-03-23T02:43:52;2.75;;;1.17;;
70414;SDS011;57837;52.064;113.478;2024-03-23T02:46:53;2.88;;;0.90;;
70414;SDS011;57837;52.064;113.478;2024-03-23T02:49:55;3.78;;;1.20;;
70414;SDS011;57837;52.064;113.478;2024-03-23T02:52:56;3.08;;;1.10;;
70414;SDS011;57837;52.064;113.478;2024-03-23T02:55:58;4.17;;;1.47;;
70414;SDS011;57837;52.064;113.478;2024-03-23T02:59:01;2.22;;;0.90;;
70414;SDS011;57837;52.064;113.478;2024-03-23T03:02:03;1.88;;;0.90;;
70414;SDS011;57837;52.064;113.478;2024-03-23T03:05:06;4.13;;;1.10;;
70414;SDS011;57837;52.064;113.478;2024-03-23T03:08:09;2.70;;;1.25;;
70414;SDS011;57837;52.064;113.478;2024-03-23T03:11:12;2.43;;;0.80;;
70414;SDS011;57837;52.064;113.478;2024-03-23T03:14:13;2.45;;;1.00;;
70414;SDS011;57837;52.064;113.478;2024-03-23T03:17:15;5.43;;;1.20;;
70414;SDS011;57837;52.064;113.478;2024-03-23T03:20:17;2.15;;;0.93;;
70414;SDS011;57837;52.064;113.478;2024-03-23T03:23:19;4.30;;;1.13;;
70414;SDS011;57837;52.064;113.478;2024-03-23T03:26:22;5.17;;;1.33;;
70414;SDS011;57837;52.064;113.478;2024-03-23T03:29:24;3.45;;;1.02;;
70414;SDS011;57837;52.064;113.478;2024-03-23T03:32:26;3.83;;;1.50;;
70414;SDS011;57837;52.064;113.478;2024-03-23T03:35:29;2.40;;;0.90;;
70414;SDS011;57837;52.064;113.478;2024-03-23T03:38:31;5.45;;;1.00;;
70414;SDS011;57837;52.064;113.478;2024-03-23T03:41:33;7.27;;;1.67;;
70414;SDS011;57837;52.064;113.478;2024-03-23T03:44:34;4.90;;;1.25;;
70414;SDS011;57837;52.064;113.478;2024-03-23T03:47:37;3.00;;;0.88;;
70414;SDS011;57837;52.064;113.478;2024-03-23T03:50:39;5.40;;;0.88;;
70414;SDS011;57837;52.064;113.478;2024-03-23T03:53:41;3.88;;;1.33;;
70414;SDS011;57837;52.064;113.478;2024-03-23T03:56:43;6.77;;;1.20;;
70414;SDS011;57837;52.064;113.478;2024-03-23T03:59:44;29.10;;;2.60;;
70414;SDS011;57837;52.064;113.478;2024-03-23T04:02:46;12.45;;;1.35;;
70414;SDS011;57837;52.064;113.478;2024-03-23T04:05:52;2.50;;;0.77;;
70414;SDS011;57837;52.064;113.478;2024-03-23T04:08:54;1.20;;;0.50;;
70414;SDS011;57837;52.064;113.478;2024-03-23T04:11:57;1.70;;;0.90;;
70414;SDS011;57837;52.064;113.478;2024-03-23T04:14:58;1.45;;;0.57;;
70414;SDS011;57837;52.064;113.478;2024-03-23T04:18:01;2.13;;;0.77;;
70414;SDS011;57837;52.064;113.478;2024-03-23T04:21:04;3.13;;;1.00;;
70414;SDS011;57837;52.064;113.478;2024-03-23T04:24:06;5.43;;;0.90;;
70414;SDS011;57837;52.064;113.478;2024-03-23T04:27:13;3.03;;;1.00;;
70414;SDS011;57837;52.064;113.478;2024-03-23T04:30:15;4.00;;;1.08;;
70414;SDS011;57837;52.064;113.478;2024-03-23T04:33:17;11.73;;;1.13;;
70414;SDS011;57837;52.064;113.478;2024-03-23T04:36:19;8.63;;;1.13;;
70414;SDS011;57837;52.064;113.478;2024-03-23T04:39:21;9.77;;;2.08;;
70414;SDS011;57837;52.064;113.478;2024-03-23T04:42:23;11.77;;;1.90;;
70414;SDS011;57837;52.064;113.478;2024-03-23T04:45:25;2.78;;;0.80;;
70414;SDS011;57837;52.064;113.478;2024-03-23T04:48:27;5.72;;;1.48;;
70414;SDS011;57837;52.064;113.478;2024-03-23T04:51:28;3.65;;;1.10;;
70414;SDS011;57837;52.064;113.478;2024-03-23T04:54:39;13.05;;;2.35;;
70414;SDS011;57837;52.064;113.478;2024-03-23T04:57:44;4.97;;;1.33;;
70414;SDS011;57837;52.064;113.478;2024-03-23T05:00:45;8.13;;;1.08;;
70414;SDS011;57837;52.064;113.478;2024-03-23T05:03:47;14.30;;;1.55;;
70414;SDS011;57837;52.064;113.478;2024-03-23T05:06:51;10.55;;;1.55;;
70414;SDS011;57837;52.064;113.478;2024-03-23T05:09:54;5.78;;;1.20;;
70414;SDS011;57837;52.064;113.478;2024-03-23T05:12:56;19.47;;;2.10;;
70414;SDS011;57837;52.064;113.478;2024-03-23T05:15:58;3.90;;;1.23;;
70414;SDS011;57837;52.064;113.478;2024-03-23T05:19:00;2.95;;;0.70;;
70414;SDS011;57837;52.064;113.478;2024-03-23T05:22:02;11.80;;;1.45;;
70414;SDS011;57837;52.064;113.478;2024-03-23T05:25:03;12.20;;;1.90;;
70414;SDS011;57837;52.064;113.478;2024-03-23T05:28:05;6.13;;;1.00;;
70414;SDS011;57837;52.064;113.478;2024-03-23T05:31:08;8.35;;;1.35;;
70414;SDS011;57837;52.064;113.478;2024-03-23T05:34:11;3.00;;;0.90;;
70414;SDS011;57837;52.064;113.478;2024-03-23T05:37:13;5.75;;;1.38;;
70414;SDS011;57837;52.064;113.478;2024-03-23T05:40:15;9.60;;;1.35;;
70414;SDS011;57837;52.064;113.478;2024-03-23T05:43:17;23.40;;;1.77;;
70414;SDS011;57837;52.064;113.478;2024-03-23T05:46:19;2.00;;;1.02;;
70414;SDS011;57837;52.064;113.478;2024-03-23T05:49:21;18.27;;;1.50;;
70414;SDS011;57837;52.064;113.478;2024-03-23T05:52:23;52.63;;;3.20;;
70414;SDS011;57837;52.064;113.478;2024-03-23T05:55:26;12.60;;;1.27;;
70414;SDS011;57837;52.064;113.478;2024-03-23T05:58:28;13.23;;;1.00;;
70414;SDS011;57837;52.064;113.478;2024-03-23T06:01:29;1.95;;;0.73;;
70414;SDS011;57837;52.064;113.478;2024-03-23T06:04:33;2.25;;;0.90;;
70414;SDS011;57837;52.064;113.478;2024-03-23T06:07:36;8.60;;;0.85;;
70414;SDS011;57837;52.064;113.478;2024-03-23T06:10:38;6.57;;;0.75;;
70414;SDS011;57837;52.064;113.478;2024-03-23T06:13:40;9.07;;;1.30;;
70414;SDS011;57837;52.064;113.478;2024-03-23T06:16:42;2.17;;;1.00;;
70414;SDS011;57837;52.064;113.478;2024-03-23T06:19:44;4.70;;;1.10;;
70414;SDS011;57837;52.064;113.478;2024-03-23T06:22:47;10.63;;;2.50;;
70414;SDS011;57837;52.064;113.478;2024-03-23T06:25:49;6.45;;;1.42;;
70414;SDS011;57837;52.064;113.478;2024-03-23T06:28:51;12.67;;;3.50;;
70414;SDS011;57837;52.064;113.478;2024-03-23T06:31:53;8.03;;;1.40;;
70414;SDS011;57837;52.064;113.478;2024-03-23T06:34:56;6.63;;;1.30;;
70414;SDS011;57837;52.064;113.478;2024-03-23T06:37:59;2.58;;;1.02;;
70414;SDS011;57837;52.064;113.478;2024-03-23T06:41:05;3.55;;;0.95;;
70414;SDS011;57837;52.064;113.478;2024-03-23T06:44:07;5.20;;;0.77;;
70414;SDS011;57837;52.064;113.478;2024-03-23T06:47:10;9.63;;;2.47;;
70414;SDS011;57837;52.064;113.478;2024-03-23T06:50:13;5.07;;;2.15;;
70414;SDS011;57837;52.064;113.478;2024-03-23T06:53:15;5.15;;;1.77;;
70414;SDS011;57837;52.064;113.478;2024-03-23T06:56:18;5.63;;;1.45;;
70414;SDS011;57837;52.064;113.478;2024-03-23T06:59:19;4.33;;;0.73;;
70414;SDS011;57837;52.064;113.478;2024-03-23T07:02:22;6.53;;;1.00;;
70414;SDS011;57837;52.064;113.478;2024-03-23T07:05:24;5.35;;;1.50;;
70414;SDS011;57837;52.064;113.478;2024-03-23T07:08:27;7.78;;;1.17;;
70414;SDS011;57837;52.064;113.478;2024-03-23T07:11:29;1.92;;;1.00;;
70414;SDS011;57837;52.064;113.478;2024-03-23T07:14:34;86.83;;;6.27;;
70414;SDS011;57837;52.064;113.478;2024-03-23T07:17:37;11.82;;;1.98;;
70414;SDS011;57837;52.064;113.478;2024-03-23T07:20:39;10.20;;;1.40;;
70414;SDS011;57837;52.064;113.478;2024-03-23T07:23:42;3.08;;;0.95;;
70414;SDS011;57837;52.064;113.478;2024-03-23T07:26:57;6.07;;;0.80;;
70414;SDS011;57837;52.064;113.478;2024-03-23T07:29:59;6.13;;;1.27;;
70414;SDS011;57837;52.064;113.478;2024-03-23T07:33:03;8.38;;;2.58;;
70414;SDS011;57837;52.064;113.478;2024-03-23T07:36:04;7.53;;;2.90;;
70414;SDS011;57837;52.064;113.478;2024-03-23T07:39:06;7.45;;;1.50;;
70414;SDS011;57837;52.064;113.478;2024-03-23T07:42:09;11.43;;;1.90;;
70414;SDS011;57837;52.064;113.478;2024-03-23T07:45:12;4.80;;;1.17;;
70414;SDS011;57837;52.064;113.478;2024-03-23T07:48:14;4.32;;;1.35;;
70414;SDS011;57837;52.064;113.478;2024-03-23T07:51:18;5.97;;;2.58;;
70414;SDS011;57837;52.064;113.478;2024-03-23T07:54:22;9.45;;;1.30;;
70414;SDS011;57837;52.064;113.478;2024-03-23T07:57:24;4.68;;;1.63;;
70414;SDS011;57837;52.064;113.478;2024-03-23T08:00:28;5.80;;;1.70;;
70414;SDS011;57837;52.064;113.478;2024-03-23T08:03:31;10.55;;;3.47;;
70414;SDS011;57837;52.064;113.478;2024-03-23T08:06:33;5.85;;;2.50;;
70414;SDS011;57837;52.064;113.478;2024-03-23T08:09:35;4.50;;;2.20;;
70414;SDS011;57837;52.064;113.478;2024-03-23T08:12:38;6.20;;;2.20;;
70414;SDS011;57837;52.064;113.478;2024-03-23T08:15:41;16.17;;;5.50;;
70414;SDS011;57837;52.064;113.478;2024-03-23T08:18:43;10.70;;;3.40;;
70414;SDS011;57837;52.064;113.478;2024-03-23T08:21:46;3.63;;;1.83;;
70414;SDS011;57837;52.064;113.478;2024-03-23T08:24:49;5.60;;;2.13;;
70414;SDS011;57837;52.064;113.478;2024-03-23T08:27:51;8.88;;;2.45;;
70414;SDS011;57837;52.064;113.478;2024-03-23T08:30:53;13.43;;;3.27;;
70414;SDS011;57837;52.064;113.478;2024-03-23T08:33:57;8.13;;;2.20;;
70414;SDS011;57837;52.064;113.478;2024-03-23T08:36:58;5.25;;;2.00;;
70414;SDS011;57837;52.064;113.478;2024-03-23T08:40:01;11.82;;;2.60;;
70414;SDS011;57837;52.064;113.478;2024-03-23T08:43:03;8.65;;;2.20;;
70414;SDS011;57837;52.064;113.478;2024-03-23T08:46:07;27.60;;;4.23;;
70414;SDS011;57837;52.064;113.478;2024-03-23T08:49:15;12.13;;;2.90;;
70414;SDS011;57837;52.064;113.478;2024-03-23T08:52:17;14.20;;;4.05;;
70414;SDS011;57837;52.064;113.478;2024-03-23T08:55:20;7.25;;;1.92;;
70414;SDS011;57837;52.064;113.478;2024-03-23T08:58:26;4.28;;;1.20;;
70414;SDS011;57837;52.064;113.478;2024-03-23T09:01:29;11.30;;;2.60;;
70414;SDS011;57837;52.064;113.478;2024-03-23T09:04:31;4.80;;;1.58;;
70414;SDS011;57837;52.064;113.478;2024-03-23T09:07:32;5.45;;;1.73;;
70414;SDS011;57837;52.064;113.478;2024-03-23T09:10:40;3.70;;;1.38;;
70414;SDS011;57837;52.064;113.478;2024-03-23T09:13:43;6.35;;;1.48;;
70414;SDS011;57837;52.064;113.478;2024-03-23T09:16:46;15.97;;;3.50;;
70414;SDS011;57837;52.064;113.478;2024-03-23T09:19:52;8.95;;;2.42;;
70414;SDS011;57837;52.064;113.478;2024-03-23T09:22:54;9.60;;;2.83;;
70414;SDS011;57837;52.064;113.478;2024-03-23T09:25:56;4.60;;;1.73;;
70414;SDS011;57837;52.064;113.478;2024-03-23T09:28:58;5.85;;;2.00;;
70414;SDS011;57837;52.064;113.478;2024-03-23T09:32:00;12.63;;;2.70;;
70414;SDS011;57837;52.064;113.478;2024-03-23T09:35:02;14.98;;;3.50;;
70414;SDS011;57837;52.064;113.478;2024-03-23T09:38:04;10.30;;;2.50;;
70414;SDS011;57837;52.064;113.478;2024-03-23T09:41:09;5.05;;;1.60;;
70414;SDS011;57837;52.064;113.478;2024-03-23T09:44:11;13.52;;;2.58;;
70414;SDS011;57837;52.064;113.478;2024-03-23T09:47:14;5.97;;;2.47;;
70414;SDS011;57837;52.064;113.478;2024-03-23T09:50:15;7.45;;;1.67;;
70414;SDS011;57837;52.064;113.478;2024-03-23T09:53:17;11.60;;;1.98;;
70414;SDS011;57837;52.064;113.478;2024-03-23T09:56:19;15.63;;;2.42;;
70414;SDS011;57837;52.064;113.478;2024-03-23T09:59:23;6.35;;;1.60;;
70414;SDS011;57837;52.064;113.478;2024-03-23T10:02:28;10.97;;;2.40;;
70414;SDS011;57837;52.064;113.478;2024-03-23T10:05:31;7.20;;;2.50;;
70414;SDS011;57837;52.064;113.478;2024-03-23T10:08:35;15.20;;;3.75;;
70414;SDS011;57837;52.064;113.478;2024-03-23T10:11:38;7.30;;;1.73;;
70414;SDS011;57837;52.064;113.478;2024-03-23T10:14:40;10.98;;;2.72;;
70414;SDS011;57837;52.064;113.478;2024-03-23T10:17:44;6.03;;;2.00;;
70414;SDS011;57837;52.064;113.478;2024-03-23T10:21:06;7.40;;;3.00;;
70414;SDS011;57837;52.064;113.478;2024-03-23T10:24:10;8.00;;;2.45;;
70414;SDS011;57837;52.064;113.478;2024-03-23T10:27:16;6.90;;;3.20;;
70414;SDS011;57837;52.064;113.478;2024-03-23T10:30:21;7.20;;;2.88;;
70414;SDS011;57837;52.064;113.478;2024-03-23T10:33:29;7.00;;;3.17;;
70414;SDS011;57837;52.064;113.478;2024-03-23T10:36:32;10.90;;;2.70;;
70414;SDS011;57837;52.064;113.478;2024-03-23T10:39:37;10.68;;;3.35;;
70414;SDS011;57837;52.064;113.478;2024-03-23T10:42:41;13.57;;;3.97;;
70414;SDS011;57837;52.064;113.478;2024-03-23T10:45:44;17.42;;;5.38;;
70414;SDS011;57837;52.064;113.478;2024-03-23T10:48:45;26.87;;;6.60;;
70414;SDS011;57837;52.064;113.478;2024-03-23T10:51:48;15.38;;;4.88;;
70414;SDS011;57837;52.064;113.478;2024-03-23T10:54:51;14.13;;;4.43;;
70414;SDS011;57837;52.064;113.478;2024-03-23T10:57:54;10.23;;;3.35;;
70414;SDS011;57837;52.064;113.478;2024-03-23T11:00:59;13.85;;;4.15;;
70414;SDS011;57837;52.064;113.478;2024-03-23T11:04:04;20.17;;;6.20;;
70414;SDS011;57837;52.064;113.478;2024-03-23T11:10:28;30.73;;;10.10;;
70414;SDS011;57837;52.064;113.478;2024-03-23T11:13:31;53.88;;;17.45;;
70414;SDS011;57837;52.064;113.478;2024-03-23T11:16:35;49.30;;;18.07;;
70414;SDS011;57837;52.064;113.478;2024-03-23T11:19:40;51.75;;;16.92;;
70414;SDS011;57837;52.064;113.478;2024-03-23T11:22:47;63.88;;;21.30;;
70414;SDS011;57837;52.064;113.478;2024-03-23T11:25:50;45.78;;;17.15;;
70414;SDS011;57837;52.064;113.478;2024-03-23T11:29:08;54.87;;;19.27;;
70414;SDS011;57837;52.064;113.478;2024-03-23T11:32:13;47.95;;;16.83;;
70414;SDS011;57837;52.064;113.478;2024-03-23T11:38:36;74.60;;;26.40;;
70414;SDS011;57837;52.064;113.478;2024-03-23T11:41:49;78.13;;;27.67;;
70414;SDS011;57837;52.064;113.478;2024-03-23T11:44:52;51.07;;;18.10;;
70414;SDS011;57837;52.064;113.478;2024-03-23T11:48:01;58.33;;;20.90;;
70414;SDS011;57837;52.064;113.478;2024-03-23T11:51:07;71.25;;;26.17;;
70414;SDS011;57837;52.064;113.478;2024-03-23T11:54:10;78.72;;;25.35;;
70414;SDS011;57837;52.064;113.478;2024-03-23T11:57:12;82.17;;;27.57;;
70414;SDS011;57837;52.064;113.478;2024-03-23T12:00:21;74.38;;;22.55;;
70414;SDS011;57837;52.064;113.478;2024-03-23T12:03:28;85.57;;;25.83;;
70414;SDS011;57837;52.064;113.478;2024-03-23T12:06:31;118.90;;;38.53;;
70414;SDS011;57837;52.064;113.478;2024-03-23T12:09:33;96.90;;;31.17;;
70414;SDS011;57837;52.064;113.478;2024-03-23T12:12:35;84.03;;;27.23;;
70414;SDS011;57837;52.064;113.478;2024-03-23T12:15:37;69.15;;;24.45;;
70414;SDS011;57837;52.064;113.478;2024-03-23T12:18:40;46.80;;;16.17;;
70414;SDS011;57837;52.064;113.478;2024-03-23T12:21:45;62.20;;;18.73;;
70414;SDS011;57837;52.064;113.478;2024-03-23T12:24:48;44.72;;;15.93;;
70414;SDS011;57837;52.064;113.478;2024-03-23T12:27:51;43.88;;;14.88;;
70414;SDS011;57837;52.064;113.478;2024-03-23T12:30:54;61.60;;;22.98;;
70414;SDS011;57837;52.064;113.478;2024-03-23T12:33:57;109.88;;;35.38;;
70414;SDS011;57837;52.064;113.478;2024-03-23T12:37:02;124.68;;;45.72;;
70414;SDS011;57837;52.064;113.478;2024-03-23T12:40:05;163.70;;;55.20;;
70414;SDS011;57837;52.064;113.478;2024-03-23T12:43:09;159.30;;;53.10;;
70414;SDS011;57837;52.064;113.478;2024-03-23T12:46:11;122.47;;;43.60;;
70414;SDS011;57837;52.064;113.478;2024-03-23T12:49:14;115.43;;;42.65;;
70414;SDS011;57837;52.064;113.478;2024-03-23T12:52:16;52.08;;;18.02;;
70414;SDS011;57837;52.064;113.478;2024-03-23T12:55:19;52.42;;;18.20;;
70414;SDS011;57837;52.064;113.478;2024-03-23T12:58:22;67.70;;;21.43;;
70414;SDS011;57837;52.064;113.478;2024-03-23T13:01:25;63.05;;;22.60;;
70414;SDS011;57837;52.064;113.478;2024-03-23T13:04:28;75.28;;;25.90;;
70414;SDS011;57837;52.064;113.478;2024-03-23T13:07:31;121.43;;;41.08;;
70414;SDS011;57837;52.064;113.478;2024-03-23T13:10:35;94.30;;;32.93;;
70414;SDS011;57837;52.064;113.478;2024-03-23T13:13:38;84.85;;;28.80;;
70414;SDS011;57837;52.064;113.478;2024-03-23T13:16:40;105.50;;;28.45;;
70414;SDS011;57837;52.064;113.478;2024-03-23T13:19:43;93.50;;;26.77;;
70414;SDS011;57837;52.064;113.478;2024-03-23T13:22:46;89.15;;;31.50;;
70414;SDS011;57837;52.064;113.478;2024-03-23T13:25:49;100.78;;;31.60;;
70414;SDS011;57837;52.064;113.478;2024-03-23T13:28:56;139.32;;;40.15;;
70414;SDS011;57837;52.064;113.478;2024-03-23T13:31:59;131.10;;;39.50;;
70414;SDS011;57837;52.064;113.478;2024-03-23T13:35:01;137.55;;;41.67;;
70414;SDS011;57837;52.064;113.478;2024-03-23T13:38:03;137.77;;;41.38;;
70414;SDS011;57837;52.064;113.478;2024-03-23T13:41:06;128.80;;;41.13;;
70414;SDS011;57837;52.064;113.478;2024-03-23T13:44:11;115.35;;;38.63;;
70414;SDS011;57837;52.064;113.478;2024-03-23T13:47:13;129.30;;;42.88;;
70414;SDS011;57837;52.064;113.478;2024-03-23T13:50:16;115.60;;;39.10;;
70414;SDS011;57837;52.064;113.478;2024-03-23T13:53:18;98.40;;;30.52;;
70414;SDS011;57837;52.064;113.478;2024-03-23T13:56:24;100.35;;;32.53;;
70414;SDS011;57837;52.064;113.478;2024-03-23T13:59:25;91.32;;;31.45;;
70414;SDS011;57837;52.064;113.478;2024-03-23T14:02:29;100.93;;;31.57;;
70414;SDS011;57837;52.064;113.478;2024-03-23T14:05:33;81.95;;;26.63;;
70414;SDS011;57837;52.064;113.478;2024-03-23T14:08:35;78.18;;;24.42;;
70414;SDS011;57837;52.064;113.478;2024-03-23T14:11:41;79.80;;;27.17;;
70414;SDS011;57837;52.064;113.478;2024-03-23T14:14:44;73.15;;;24.35;;
70414;SDS011;57837;52.064;113.478;2024-03-23T14:17:46;68.63;;;25.55;;
70414;SDS011;57837;52.064;113.478;2024-03-23T14:20:50;71.85;;;25.02;;
70414;SDS011;57837;52.064;113.478;2024-03-23T14:23:51;71.95;;;26.70;;
70414;SDS011;57837;52.064;113.478;2024-03-23T14:26:55;65.60;;;23.92;;
70414;SDS011;57837;52.064;113.478;2024-03-23T14:29:57;55.50;;;20.92;;
70414;SDS011;57837;52.064;113.478;2024-03-23T14:32:59;65.77;;;22.07;;
70414;SDS011;57837;52.064;113.478;2024-03-23T14:36:05;61.03;;;21.55;;
70414;SDS011;57837;52.064;113.478;2024-03-23T14:39:22;50.67;;;19.67;;
70414;SDS011;57837;52.064;113.478;2024-03-23T14:42:25;68.23;;;21.17;;
70414;SDS011;57837;52.064;113.478;2024-03-23T14:45:29;70.57;;;24.00;;
70414;SDS011;57837;52.064;113.478;2024-03-23T14:48:47;65.07;;;21.63;;
70414;SDS011;57837;52.064;113.478;2024-03-23T14:51:49;73.00;;;23.75;;
70414;SDS011;57837;52.064;113.478;2024-03-23T14:54:51;93.10;;;29.02;;
70414;SDS011;57837;52.064;113.478;2024-03-23T14:57:52;100.72;;;30.60;;
70414;SDS011;57837;52.064;113.478;2024-03-23T15:01:12;143.07;;;44.58;;
70414;SDS011;57837;52.064;113.478;2024-03-23T15:04:16;96.53;;;31.77;;
70414;SDS011;57837;52.064;113.478;2024-03-23T15:07:23;55.47;;;16.52;;
70414;SDS011;57837;52.064;113.478;2024-03-23T15:10:25;31.38;;;12.38;;
70414;SDS011;57837;52.064;113.478;2024-03-23T15:13:28;25.73;;;9.07;;
70414;SDS011;57837;52.064;113.478;2024-03-23T15:16:33;31.00;;;10.05;;
70414;SDS011;57837;52.064;113.478;2024-03-23T15:19:35;22.08;;;7.63;;
70414;SDS011;57837;52.064;113.478;2024-03-23T15:22:37;15.65;;;6.05;;
70414;SDS011;57837;52.064;113.478;2024-03-23T15:25:39;32.47;;;8.77;;
70414;SDS011;57837;52.064;113.478;2024-03-23T15:28:42;23.20;;;8.13;;
70414;SDS011;57837;52.064;113.478;2024-03-23T15:32:04;23.40;;;8.52;;
70414;SDS011;57837;52.064;113.478;2024-03-23T15:35:10;26.30;;;9.63;;
70414;SDS011;57837;52.064;113.478;2024-03-23T15:38:12;44.20;;;12.32;;
70414;SDS011;57837;52.064;113.478;2024-03-23T15:41:14;30.80;;;12.18;;
70414;SDS011;57837;52.064;113.478;2024-03-23T15:44:16;58.87;;;16.90;;
70414;SDS011;57837;52.064;113.478;2024-03-23T15:47:18;29.27;;;12.27;;
70414;SDS011;57837;52.064;113.478;2024-03-23T15:50:22;35.67;;;14.13;;
70414;SDS011;57837;52.064;113.478;2024-03-23T15:53:24;40.75;;;12.88;;
70414;SDS011;57837;52.064;113.478;2024-03-23T15:56:28;48.00;;;12.20;;
70414;SDS011;57837;52.064;113.478;2024-03-23T15:59:31;40.10;;;16.13;;
70414;SDS011;57837;52.064;113.478;2024-03-23T16:02:33;58.80;;;20.10;;
70414;SDS011;57837;52.064;113.478;2024-03-23T16:05:35;63.13;;;23.10;;
70414;SDS011;57837;52.064;113.478;2024-03-23T16:08:37;55.35;;;21.02;;
70414;SDS011;57837;52.064;113.478;2024-03-23T16:11:40;56.97;;;21.60;;
70414;SDS011;57837;52.064;113.478;2024-03-23T16:14:41;48.27;;;17.83;;
70414;SDS011;57837;52.064;113.478;2024-03-23T16:17:43;33.17;;;13.07;;
70414;SDS011;57837;52.064;113.478;2024-03-23T16:21:07;42.90;;;16.30;;
70414;SDS011;57837;52.064;113.478;2024-03-23T16:24:07;42.55;;;15.68;;
70414;SDS011;57837;52.064;113.478;2024-03-23T16:27:10;36.72;;;11.43;;
70414;SDS011;57837;52.064;113.478;2024-03-23T16:30:13;41.05;;;11.52;;
70414;SDS011;57837;52.064;113.478;2024-03-23T16:33:17;33.40;;;12.10;;
70414;SDS011;57837;52.064;113.478;2024-03-23T16:36:19;21.00;;;8.50;;
70414;SDS011;57837;52.064;113.478;2024-03-23T16:39:22;21.23;;;7.72;;
70414;SDS011;57837;52.064;113.478;2024-03-23T16:42:23;30.50;;;10.75;;
70414;SDS011;57837;52.064;113.478;2024-03-23T16:45:26;43.10;;;11.67;;
70414;SDS011;57837;52.064;113.478;2024-03-23T16:48:28;26.35;;;8.75;;
70414;SDS011;57837;52.064;113.478;2024-03-23T16:51:30;25.90;;;8.07;;
70414;SDS011;57837;52.064;113.478;2024-03-23T16:54:32;72.80;;;24.20;;
70414;SDS011;57837;52.064;113.478;2024-03-23T16:57:33;65.72;;;23.50;;
70414;SDS011;57837;52.064;113.478;2024-03-23T17:00:35;85.78;;;25.30;;
70414;SDS011;57837;52.064;113.478;2024-03-23T17:03:37;49.30;;;16.00;;
70414;SDS011;57837;52.064;113.478;2024-03-23T17:06:39;47.97;;;15.40;;
70414;SDS011;57837;52.064;113.478;2024-03-23T17:09:46;37.95;;;11.80;;
70414;SDS011;57837;52.064;113.478;2024-03-23T17:12:49;34.25;;;12.07;;
70414;SDS011;57837;52.064;113.478;2024-03-23T17:15:52;25.33;;;10.73;;
70414;SDS011;57837;52.064;113.478;2024-03-23T17:18:54;32.88;;;12.80;;
70414;SDS011;57837;52.064;113.478;2024-03-23T17:21:58;30.13;;;13.30;;
70414;SDS011;57837;52.064;113.478;2024-03-23T17:25:01;36.97;;;11.38;;
70414;SDS011;57837;52.064;113.478;2024-03-23T17:28:06;36.00;;;12.85;;
70414;SDS011;57837;52.064;113.478;2024-03-23T17:31:19;29.25;;;12.98;;
70414;SDS011;57837;52.064;113.478;2024-03-23T17:34:24;40.58;;;14.55;;
70414;SDS011;57837;52.064;113.478;2024-03-23T17:37:27;33.47;;;12.83;;
70414;SDS011;57837;52.064;113.478;2024-03-23T17:40:30;30.60;;;10.75;;
70414;SDS011;57837;52.064;113.478;2024-03-23T17:43:32;25.58;;;9.93;;
70414;SDS011;57837;52.064;113.478;2024-03-23T17:46:35;30.43;;;9.20;;
70414;SDS011;57837;52.064;113.478;2024-03-23T17:49:38;15.80;;;5.90;;
70414;SDS011;57837;52.064;113.478;2024-03-23T17:52:42;23.42;;;7.80;;
70414;SDS011;57837;52.064;113.478;2024-03-23T17:55:44;23.20;;;6.30;;
70414;SDS011;57837;52.064;113.478;2024-03-23T17:58:49;18.27;;;5.85;;
70414;SDS011;57837;52.064;113.478;2024-03-23T18:01:51;16.85;;;6.85;;
70414;SDS011;57837;52.064;113.478;2024-03-23T18:04:53;15.68;;;6.55;;
70414;SDS011;57837;52.064;113.478;2024-03-23T18:07:56;19.10;;;6.57;;
70414;SDS011;57837;52.064;113.478;2024-03-23T18:10:57;36.17;;;13.43;;
70414;SDS011;57837;52.064;113.478;2024-03-23T18:14:09;57.40;;;21.52;;
70414;SDS011;57837;52.064;113.478;2024-03-23T18:17:11;54.20;;;18.23;;
70414;SDS011;57837;52.064;113.478;2024-03-23T18:20:13;53.13;;;21.15;;
70414;SDS011;57837;52.064;113.478;2024-03-23T18:23:15;48.05;;;19.98;;
70414;SDS011;57837;52.064;113.478;2024-03-23T18:26:18;38.47;;;12.88;;
70414;SDS011;57837;52.064;113.478;2024-03-23T18:29:21;31.05;;;10.93;;
70414;SDS011;57837;52.064;113.478;2024-03-23T18:32:24;26.10;;;9.60;;
70414;SDS011;57837;52.064;113.478;2024-03-23T18:35:25;33.38;;;12.38;;